Time;durP1;ratioP1;P1;durP2;ratioP2;P2;SDS_P1;SDS_P2;PMS_P1;PMS_P2;Temp;Humidity;BMP_temperature;BMP_pressure;BME280_temperature;BME280_humidity;BME280_pressure;Samples;Min_cycle;Max_cycle;Signal;HPM_P1;HPM_P2
2023/04/07 17:53:12;;;;;;;11.73;3.95;;;;;;;8.64;100.00;101831.44;5049263;28;20411;-73
2023/04/07 17:55:41;;;;;;;13.27;3.90;;;;;;;8.61;100.00;101831.81;5048819;28;20037;-76
2023/04/07 17:58:07;;;;;;;18.27;4.28;;;;;;;8.61;100.00;101837.19;5048113;28;20017;-71
2023/04/07 18:00:33;;;;;;;13.95;4.35;;;;;;;8.58;100.00;101837.56;5037566;28;20409;-77
2023/04/07 18:02:59;;;;;;;13.32;4.30;;;;;;;8.55;100.00;101837.94;5046191;28;20052;-76
2023/04/07 18:05:25;;;;;;;17.80;4.57;;;;;;;8.55;100.00;101839.81;5047927;28;20031;-73
2023/04/07 18:07:51;;;;;;;16.17;4.43;;;;;;;8.55;100.00;101837.13;5049036;28;20029;-77
2023/04/07 18:10:17;;;;;;;15.68;4.68;;;;;;;8.54;100.00;101836.25;5048352;28;20029;-78
2023/04/07 18:12:43;;;;;;;9.63;4.15;;;;;;;8.55;100.00;101837.94;5049113;28;20075;-77
2023/04/07 18:15:14;;;;;;;14.27;4.93;;;;;;;8.52;100.00;101843.72;5032888;28;20032;-75
2023/04/07 18:17:40;;;;;;;13.45;4.38;;;;;;;8.52;100.00;101849.13;5051673;28;20484;-74
2023/04/07 18:20:05;;;;;;;18.33;5.35;;;;;;;8.49;100.00;101849.50;5027894;28;20029;-78
2023/04/07 18:22:31;;;;;;;13.40;5.30;;;;;;;8.50;100.00;101845.78;5028132;28;20025;-74
2023/04/07 18:24:59;;;;;;;15.93;4.72;;;;;;;8.52;100.00;101854.50;5029197;28;20025;-74
2023/04/07 18:27:27;;;;;;;11.88;4.10;;;;;;;8.50;100.00;101857.41;5048247;28;20037;-80
2023/04/07 18:30:15;;;;;;;14.70;4.32;;;;;;;8.52;100.00;101860.72;5045909;28;20028;-80
2023/04/07 18:32:40;;;;;;;12.73;4.97;;;;;;;8.57;100.00;101870.97;5048841;28;20025;-76
2023/04/07 18:35:06;;;;;;;15.80;4.45;;;;;;;8.58;100.00;101872.66;5039178;28;20029;-77
2023/04/07 18:37:32;;;;;;;16.35;4.78;;;;;;;8.56;100.00;101871.16;5034840;28;20415;-76
2023/04/07 18:39:57;;;;;;;18.05;5.35;;;;;;;8.56;100.00;101874.72;5048875;28;20029;-78
2023/04/07 18:42:25;;;;;;;13.57;4.60;;;;;;;8.55;100.00;101875.72;5046017;28;20025;-78
2023/04/07 18:44:51;;;;;;;18.20;5.25;;;;;;;8.53;100.00;101875.09;5048215;28;20132;-78
2023/04/07 18:47:16;;;;;;;12.23;5.05;;;;;;;8.51;100.00;101879.81;5048064;28;20109;-76
2023/04/07 18:49:42;;;;;;;21.83;11.88;;;;;;;8.50;100.00;101884.38;5048373;28;20055;-78
2023/04/07 18:52:08;;;;;;;17.15;6.07;;;;;;;8.52;100.00;101893.09;5047870;28;20053;-77
2023/04/07 18:54:33;;;;;;;13.90;6.72;;;;;;;8.55;100.00;101901.88;5047162;28;20044;-77
2023/04/07 18:56:58;;;;;;;14.93;5.88;;;;;;;8.54;100.00;101892.91;5047201;28;20471;-77
2023/04/07 18:59:27;;;;;;;15.13;5.70;;;;;;;8.52;100.00;101894.97;5048918;28;20099;-75
2023/04/07 19:01:54;;;;;;;13.95;5.78;;;;;;;8.55;100.00;101901.88;5028111;28;20038;-77
2023/04/07 19:04:19;;;;;;;16.65;5.15;;;;;;;8.53;100.00;101904.75;5032633;28;20030;-75
2023/04/07 19:06:48;;;;;;;15.05;5.10;;;;;;;8.50;100.00;101907.81;5033531;28;20041;-74
2023/04/07 19:09:16;;;;;;;18.08;6.47;;;;;;;8.49;100.00;101906.13;5033850;28;20037;-75
2023/04/07 19:11:44;;;;;;;11.73;5.13;;;;;;;8.48;100.00;101912.56;5033621;28;20441;-75
2023/04/07 19:14:10;;;;;;;18.85;5.70;;;;;;;8.56;100.00;101915.19;5034045;28;20052;-77
2023/04/07 19:16:35;;;;;;;19.95;6.03;;;;;;;8.51;100.00;101915.72;5031445;28;20053;-76
2023/04/07 19:19:01;;;;;;;17.35;5.68;;;;;;;8.47;100.00;101921.66;5035054;28;20021;-79
2023/04/07 19:21:26;;;;;;;17.63;5.55;;;;;;;8.48;100.00;101920.63;5033678;28;20025;-76
2023/04/07 19:23:54;;;;;;;19.00;8.77;;;;;;;8.44;100.00;101916.63;5031278;28;20461;-76
2023/04/07 19:26:29;;;;;;;18.65;9.70;;;;;;;8.44;100.00;101912.09;5017104;28;20030;-78
2023/04/07 19:28:57;;;;;;;15.18;6.95;;;;;;;8.40;100.00;101916.13;5034440;28;20021;-77
2023/04/07 19:31:23;;;;;;;16.52;5.70;;;;;;;8.42;100.00;101913.25;5015542;28;20033;-74
2023/04/07 19:33:48;;;;;;;19.02;5.80;;;;;;;8.41;100.00;101915.13;5019612;28;20033;-75
2023/04/07 19:36:14;;;;;;;21.92;6.72;;;;;;;8.41;100.00;101916.97;5032875;28;20017;-70
2023/04/07 19:38:39;;;;;;;14.65;5.50;;;;;;;8.38;100.00;101917.34;5031095;28;20033;-73
2023/04/07 19:41:05;;;;;;;21.60;5.65;;;;;;;8.37;100.00;101919.22;5019460;28;20469;-74
2023/04/07 19:43:30;;;;;;;19.17;6.20;;;;;;;8.36;100.00;101922.09;5032205;28;20481;-72
2023/04/07 19:45:56;;;;;;;15.73;5.50;;;;;;;8.40;100.00;101931.50;5019508;28;20021;-74
2023/04/07 19:48:21;;;;;;;20.10;6.47;;;;;;;8.38;100.00;101933.53;5023998;28;20018;-72
2023/04/07 19:50:48;;;;;;;16.35;6.18;;;;;;;8.40;100.00;101936.88;5016533;28;20042;-74
2023/04/07 19:53:17;;;;;;;12.98;6.22;;;;;;;8.43;100.00;101931.94;5025045;28;20036;-72
2023/04/07 19:55:46;;;;;;;16.50;6.53;;;;;;;8.44;100.00;101935.50;5014303;28;20080;-74
2023/04/07 19:58:11;;;;;;;18.42;7.15;;;;;;;8.43;100.00;101942.75;5023210;28;20416;-72
2023/04/07 20:00:38;;;;;;;13.07;5.82;;;;;;;8.41;100.00;101939.41;5048485;28;20032;-74
2023/04/07 20:03:03;;;;;;;18.73;6.22;;;;;;;8.38;100.00;101939.78;5053955;28;20036;-74
2023/04/07 20:05:33;;;;;;;20.20;6.93;;;;;;;8.38;100.00;101949.69;5039920;28;20036;-72
2023/04/07 20:07:59;;;;;;;16.88;6.53;;;;;;;8.37;100.00;101954.28;5013846;28;20022;-75
2023/04/07 20:10:25;;;;;;;17.05;7.57;;;;;;;8.38;100.00;101955.09;5022269;28;20021;-72
2023/04/07 20:12:50;;;;;;;19.25;7.00;;;;;;;8.39;100.00;101954.09;5026930;28;20071;-73
2023/04/07 20:15:16;;;;;;;18.05;7.80;;;;;;;8.38;100.00;101957.78;5032740;28;20021;-72
2023/04/07 20:17:41;;;;;;;21.35;8.18;;;;;;;8.39;100.00;101963.00;5033108;28;20439;-76
2023/04/07 20:20:07;;;;;;;17.52;6.57;;;;;;;8.34;100.00;101955.47;5033785;28;20025;-73
2023/04/07 20:22:38;;;;;;;19.77;6.57;;;;;;;8.36;100.00;101962.53;5033865;28;20037;-75
2023/04/07 20:25:04;;;;;;;20.95;6.22;;;;;;;8.36;100.00;101959.84;5032015;28;20039;-71
2023/04/07 20:27:33;;;;;;;22.75;6.63;;;;;;;8.31;100.00;101963.91;5032118;28;20029;-74
2023/04/07 20:29:59;;;;;;;15.13;6.07;;;;;;;8.31;100.00;101955.00;5033197;28;20083;-70
2023/04/07 20:32:25;;;;;;;19.10;6.65;;;;;;;8.28;100.00;101964.28;5031256;28;20465;-70
2023/04/07 20:34:51;;;;;;;19.48;6.45;;;;;;;8.31;100.00;101963.91;5033423;28;20029;-72
2023/04/07 20:37:20;;;;;;;19.70;7.10;;;;;;;8.29;100.00;101970.53;5033561;28;20033;-70
2023/04/07 20:39:46;;;;;;;20.35;7.00;;;;;;;8.27;100.00;101970.72;5033306;28;20049;-71
2023/04/07 20:42:11;;;;;;;18.58;6.63;;;;;;;8.25;100.00;101978.13;5033484;28;20029;-73
2023/04/07 20:44:39;;;;;;;19.27;6.65;;;;;;;8.30;100.00;101985.69;5033195;28;20457;-70
2023/04/07 20:47:08;;;;;;;16.55;6.43;;;;;;;8.25;100.00;101980.84;5026475;28;20025;-73
2023/04/07 20:49:35;;;;;;;20.30;6.75;;;;;;;8.29;100.00;101982.16;5022985;28;20031;-70
2023/04/07 20:52:00;;;;;;;17.02;7.25;;;;;;;8.22;100.00;101978.50;5015187;28;20089;-72
2023/04/07 20:54:26;;;;;;;13.65;6.72;;;;;;;8.21;100.00;101976.81;5013279;28;20105;-71
2023/04/07 20:56:51;;;;;;;19.50;7.07;;;;;;;8.18;100.00;101982.56;5029049;28;20026;-71
2023/04/07 20:59:17;;;;;;;18.90;6.85;;;;;;;8.18;100.00;101979.06;5015620;28;20026;-71
2023/04/07 21:01:42;;;;;;;18.95;8.10;;;;;;;8.17;100.00;101986.31;5013210;28;20458;-73
2023/04/07 21:04:08;;;;;;;16.77;7.30;;;;;;;8.22;100.00;101985.75;5013482;28;20362;-71
2023/04/07 21:06:33;;;;;;;18.73;7.25;;;;;;;8.21;100.00;101992.16;5012498;28;20152;-70
2023/04/07 21:08:59;;;;;;;19.48;7.70;;;;;;;8.19;100.00;101995.03;5021768;28;20598;-73
2023/04/07 21:11:24;;;;;;;22.35;8.00;;;;;;;8.19;100.00;101995.03;5032151;28;20557;-70
2023/04/07 21:13:50;;;;;;;21.70;7.95;;;;;;;8.12;100.00;101989.56;5032766;28;20087;-69
2023/04/07 21:16:15;;;;;;;20.40;7.88;;;;;;;8.07;100.00;101985.72;5028172;28;20025;-71
2023/04/07 21:18:40;;;;;;;17.75;7.80;;;;;;;8.10;100.00;101993.44;5011821;28;20149;-71
2023/04/07 21:21:06;;;;;;;19.45;8.27;;;;;;;8.11;100.00;101995.94;5012361;28;20030;-69
2023/04/07 21:23:32;;;;;;;18.77;7.68;;;;;;;8.07;100.00;101988.41;5014823;28;20034;-73
2023/04/07 21:26:04;;;;;;;17.08;7.63;;;;;;;8.06;100.00;101990.28;5030335;28;20022;-72
2023/04/07 21:28:29;;;;;;;17.75;7.72;;;;;;;8.07;100.00;101986.53;5031552;28;20021;-73
2023/04/07 21:30:55;;;;;;;23.23;7.50;;;;;;;8.08;100.00;101982.84;5031460;28;20025;-72
2023/04/07 21:33:21;;;;;;;22.00;8.15;;;;;;;8.08;100.00;101984.69;5026016;28;20570;-69
2023/04/07 21:35:46;;;;;;;17.77;7.75;;;;;;;8.06;100.00;101992.09;5013925;28;20034;-70
2023/04/07 21:38:12;;;;;;;19.70;7.90;;;;;;;8.03;100.00;101987.94;5020050;28;20465;-70
2023/04/07 21:40:37;;;;;;;19.50;8.90;;;;;;;8.03;100.00;101982.56;5012419;28;20412;-70
2023/04/07 21:43:02;;;;;;;24.63;8.82;;;;;;;7.99;100.00;101983.91;5012343;28;20053;-73
2023/04/07 21:45:28;;;;;;;24.45;8.45;;;;;;;7.93;100.00;101977.38;5024791;28;20575;-70
2023/04/07 21:47:54;;;;;;;20.60;8.60;;;;;;;7.93;100.00;101985.47;5014291;28;20042;-70
2023/04/07 21:50:19;;;;;;;19.52;8.15;;;;;;;7.95;100.00;101978.03;5031461;28;20452;-72
2023/04/07 21:52:44;;;;;;;23.13;8.10;;;;;;;7.93;100.00;101980.06;5032477;28;20053;-72
2023/04/07 21:55:10;;;;;;;20.77;8.80;;;;;;;7.93;100.00;101985.47;5031289;28;20380;-72
2023/04/07 21:57:35;;;;;;;22.20;8.25;;;;;;;8.00;100.00;101988.28;5024928;28;20079;-70
2023/04/07 22:00:00;;;;;;;18.65;8.00;;;;;;;7.98;100.00;101988.44;5017985;28;20032;-71
2023/04/07 22:02:26;;;;;;;20.00;8.25;;;;;;;7.99;100.00;101984.75;5010677;28;20083;-72
2023/04/07 22:04:51;;;;;;;17.35;8.13;;;;;;;8.01;100.00;101989.13;5011892;28;20055;-70
2023/04/07 22:07:16;;;;;;;22.63;8.77;;;;;;;7.97;100.00;101981.41;5013346;28;20064;-73
2023/04/07 22:09:42;;;;;;;17.48;8.13;;;;;;;7.98;100.00;101983.06;5025096;28;20445;-70
2023/04/07 22:12:07;;;;;;;21.63;8.43;;;;;;;7.99;100.00;101984.75;5018122;28;20026;-73
2023/04/07 22:14:32;;;;;;;20.60;8.30;;;;;;;7.97;100.00;101985.94;5014976;28;20025;-71
2023/04/07 22:16:58;;;;;;;25.08;9.02;;;;;;;7.98;100.00;101996.53;5024738;28;20491;-72
2023/04/07 22:19:23;;;;;;;20.42;8.15;;;;;;;8.01;100.00;101997.22;5020280;28;20029;-70
2023/04/07 22:21:48;;;;;;;20.67;8.30;;;;;;;7.98;100.00;101996.53;5031427;28;20037;-72
2023/04/07 22:24:14;;;;;;;22.20;8.43;;;;;;;7.96;100.00;101995.88;5031967;28;20022;-71
2023/04/07 22:26:40;;;;;;;18.67;8.25;;;;;;;7.95;100.00;101994.19;5031196;28;20029;-70
2023/04/07 22:29:05;;;;;;;22.88;9.25;;;;;;;7.95;100.00;102004.97;5023622;28;20030;-70
2023/04/07 22:31:31;;;;;;;18.52;8.25;;;;;;;7.95;100.00;102004.16;5014331;28;20021;-71
2023/04/07 22:33:56;;;;;;;19.10;8.30;;;;;;;7.93;100.00;102001.63;5021932;28;20088;-72
2023/04/07 22:36:22;;;;;;;21.15;8.80;;;;;;;7.90;100.00;102004.69;5028673;28;20091;-71
2023/04/07 22:38:47;;;;;;;22.23;10.00;;;;;;;7.95;100.00;102015.75;5034537;28;20021;-70
2023/04/07 22:41:12;;;;;;;21.73;8.25;;;;;;;7.95;100.00;102007.69;5024538;28;20036;-70
2023/04/07 22:43:37;;;;;;;22.40;8.27;;;;;;;7.97;100.00;102002.97;5034723;28;20041;-73
2023/04/07 22:46:03;;;;;;;19.00;8.55;;;;;;;7.90;100.00;101998.47;5034433;28;20049;-73
2023/04/07 22:48:28;;;;;;;21.25;9.82;;;;;;;7.90;100.00;102002.00;5031470;28;20104;-71
2023/04/07 22:50:54;;;;;;;23.35;10.55;;;;;;;7.85;100.00;102007.09;5026599;28;20467;-71
2023/04/07 22:53:19;;;;;;;26.05;9.57;;;;;;;7.83;100.00;102003.72;5029903;28;20069;-70
2023/04/07 22:55:46;;;;;;;26.02;9.80;;;;;;;7.81;100.00;101997.69;5034409;28;20113;-72
2023/04/07 22:58:11;;;;;;;22.20;9.90;;;;;;;7.80;100.00;102002.25;5034288;28;20461;-70
2023/04/07 23:00:36;;;;;;;20.88;9.85;;;;;;;7.79;100.00;102007.81;5024026;28;20037;-68
2023/04/07 23:03:02;;;;;;;21.20;9.63;;;;;;;7.81;100.00;102008.47;5017137;28;20057;-70
2023/04/07 23:05:27;;;;;;;22.52;9.98;;;;;;;7.79;100.00;102000.56;5028561;28;20018;-71
2023/04/07 23:07:53;;;;;;;21.42;9.65;;;;;;;7.82;100.00;102012.84;5021494;28;20510;-72
2023/04/07 23:10:18;;;;;;;24.08;9.20;;;;;;;7.83;100.00;102011.81;5018817;28;20061;-72
2023/04/07 23:12:43;;;;;;;28.25;9.93;;;;;;;7.83;100.00;102014.50;5019869;28;20033;-72
2023/04/07 23:15:09;;;;;;;19.83;9.15;;;;;;;7.83;100.00;102019.06;5032702;28;20034;-69
2023/04/07 23:17:35;;;;;;;24.17;10.20;;;;;;;7.84;100.00;102018.88;5034372;28;20033;-70
2023/04/07 23:20:00;;;;;;;21.77;10.23;;;;;;;7.84;100.00;102016.19;5033779;28;20112;-70
2023/04/07 23:22:26;;;;;;;29.00;10.27;;;;;;;7.85;100.00;102008.94;5029829;28;20029;-70
2023/04/07 23:24:51;;;;;;;25.60;10.40;;;;;;;7.81;100.00;102017.38;5013620;28;20025;-73
2023/04/07 23:27:16;;;;;;;20.20;9.77;;;;;;;7.86;100.00;102024.94;5016249;28;20026;-70
2023/04/07 23:29:42;;;;;;;25.63;10.27;;;;;;;7.85;100.00;102025.97;5026775;28;20044;-70
2023/04/07 23:32:07;;;;;;;23.67;10.63;;;;;;;7.85;100.00;102028.66;5031634;28;20112;-70
2023/04/07 23:34:32;;;;;;;23.02;10.85;;;;;;;7.86;100.00;102019.53;5032243;28;20029;-71
2023/04/07 23:36:57;;;;;;;25.23;11.52;;;;;;;7.88;100.00;102024.75;5028950;28;20108;-70
2023/04/07 23:39:23;;;;;;;24.50;10.93;;;;;;;7.88;100.00;102025.59;5033737;28;20060;-71
2023/04/07 23:41:48;;;;;;;24.55;11.27;;;;;;;7.90;100.00;102026.25;5033386;28;20029;-72
2023/04/07 23:44:14;;;;;;;25.20;12.43;;;;;;;7.89;100.00;102029.97;5024498;28;20034;-73
2023/04/07 23:46:39;;;;;;;27.13;12.57;;;;;;;7.89;100.00;102021.03;5016317;28;20044;-72
2023/04/07 23:49:05;;;;;;;25.55;11.80;;;;;;;7.88;100.00;102030.13;5025119;28;20032;-70
2023/04/07 23:51:30;;;;;;;23.63;12.02;;;;;;;7.91;100.00;102030.63;5020308;28;20064;-72
2023/04/07 23:53:55;;;;;;;27.42;13.27;;;;;;;7.95;100.00;102037.31;5028691;28;20029;-70
2023/04/07 23:56:21;;;;;;;29.55;12.75;;;;;;;7.95;100.00;102040.03;5021925;28;20438;-69
2023/04/07 23:58:47;;;;;;;28.40;12.80;;;;;;;7.92;100.00;102040.38;5029308;28;20030;-72
